Aviation Digital Data Service (ADDS)

Output produced by METARs form (1739 UTC 27 May 2017)
found at http://www.aviationweather.gov/adds/metars/
 
FBFT 271600Z 24004KT 9999 BKN025 25/04 Q1017
TAF FBFT 271200Z 2715/2724 23010KT CAVOK
       
FBKE 271700Z 29002KT CAVOK 19/13 Q1019
TAF FBKE 271200Z 2715/2724 20005KT CAVOK
       
FBMN 271700Z 32003KT CAVOK 22/13 Q1019
TAF FBMN 271200Z 2715/2724 22010KT CAVOK
       
FBSP 271700Z 00000KT CAVOK 21/12 Q1017
TAF FBSP 271200Z 2715/2724 23009KT CAVOK
       
FBSK 271700Z 21006KT CAVOK 21/00 Q1018 NOSIG
TAF FBSK 271500Z 2718/2824 23012KT CAVOK 
     BECMG 2803/2805 14015KT
       
FBFT 271600Z 24004KT 9999 BKN025 25/04 Q1017
TAF FBFT 271200Z 2715/2724 23010KT CAVOK